YNTN

Details ICAO YNTN (NTN)
Name Normanton
Region Australia
Timezone Australia/Brisbane (UTC+10.0)
Plans Departing 3
Arriving 1
Stats Elevation 36 ft / 11 m (AMSL)
Location -17.687107° 141.071712°
Runways 1
Magnetic Variation 5.653° E
Sunrise 2017-12-17 19:57:56 UTC / 2017-12-18 05:57:56 Local
Sunset 2017-12-18 09:09:02 UTC / 2017-12-18 19:09:02 Local
Advertisement - Login to hide

Runways

ID Width Length Bearing (true) Bearing (mag) Surface Threshold Offset Overrun Length
14 98 ft / 30 m 5,476 ft / 1,669 m 146.83° 141.18° Asphalt 0 ft / 0 m 0 ft / 0 m
32 98 ft / 30 m 5,476 ft / 1,669 m 326.83° 321.18° Asphalt 0 ft / 0 m 0 ft / 0 m

Map

Weather


0- 5 10 15 20 25 30 35+ Temperature / ° C

Clouds and Precipitation
Forecast for 2017-12-18 06:00 UTC. Updated 19 minutes ago

Ground ~20,000 ft ~40,000 ft Winds

METAR

YNTN 180300Z AUTO 34011KT 9999 // SCT045 34/22 Q1007

TAF

Not found

Frequencies

Unicom 126.70 MHz CTAF
Warning: Do not use this data for real-world aviation or navigation. No guarantee of current accuracy is given.